sensor_id;sensor_type;location;lat;lon;timestamp;temperature;humidity
44731;DHT22;30458;47.448;19.032;2024-03-08T00:01:50;7.60;99.90
44731;DHT22;30458;47.448;19.032;2024-03-08T00:11:53;7.90;99.90
44731;DHT22;30458;47.448;19.032;2024-03-08T00:21:57;7.80;99.90
44731;DHT22;30458;47.448;19.032;2024-03-08T00:31:57;7.80;99.90
44731;DHT22;30458;47.448;19.032;2024-03-08T00:42:00;7.90;99.90
44731;DHT22;30458;47.448;19.032;2024-03-08T00:52:02;7.90;99.90
44731;DHT22;30458;47.448;19.032;2024-03-08T01:02:03;8.00;99.90
44731;DHT22;30458;47.448;19.032;2024-03-08T01:12:07;8.10;99.90
44731;DHT22;30458;47.448;19.032;2024-03-08T01:22:07;8.00;99.90
44731;DHT22;30458;47.448;19.032;2024-03-08T01:32:10;8.00;99.90
44731;DHT22;30458;47.448;19.032;2024-03-08T01:42:15;8.10;99.90
44731;DHT22;30458;47.448;19.032;2024-03-08T01:52:20;8.10;99.90
44731;DHT22;30458;47.448;19.032;2024-03-08T02:02:28;8.10;99.90
44731;DHT22;30458;47.448;19.032;2024-03-08T02:12:34;8.10;99.90
44731;DHT22;30458;47.448;19.032;2024-03-08T02:22:35;8.00;99.90
44731;DHT22;30458;47.448;19.032;2024-03-08T02:32:36;8.00;99.90
44731;DHT22;30458;47.448;19.032;2024-03-08T02:42:37;7.90;99.90
44731;DHT22;30458;47.448;19.032;2024-03-08T02:52:38;7.90;99.90
44731;DHT22;30458;47.448;19.032;2024-03-08T03:02:39;7.80;99.90
44731;DHT22;30458;47.448;19.032;2024-03-08T03:12:40;7.80;99.90
44731;DHT22;30458;47.448;19.032;2024-03-08T03:22:41;7.80;99.90
44731;DHT22;30458;47.448;19.032;2024-03-08T03:32:42;7.80;99.90
44731;DHT22;30458;47.448;19.032;2024-03-08T03:42:47;7.80;99.90
44731;DHT22;30458;47.448;19.032;2024-03-08T03:52:53;7.80;99.90
44731;DHT22;30458;47.448;19.032;2024-03-08T04:02:54;7.80;99.90
44731;DHT22;30458;47.448;19.032;2024-03-08T04:12:57;7.80;99.90
44731;DHT22;30458;47.448;19.032;2024-03-08T04:22:58;7.70;99.90
44731;DHT22;30458;47.448;19.032;2024-03-08T04:33:01;7.60;99.90
44731;DHT22;30458;47.448;19.032;2024-03-08T04:43:04;7.60;99.90
44731;DHT22;30458;47.448;19.032;2024-03-08T04:53:08;7.70;99.90
44731;DHT22;30458;47.448;19.032;2024-03-08T05:03:08;7.70;99.90
44731;DHT22;30458;47.448;19.032;2024-03-08T05:13:11;7.60;99.90
44731;DHT22;30458;47.448;19.032;2024-03-08T05:23:13;7.50;99.90
44731;DHT22;30458;47.448;19.032;2024-03-08T05:33:16;7.30;99.90
44731;DHT22;30458;47.448;19.032;2024-03-08T05:43:17;7.40;99.90
44731;DHT22;30458;47.448;19.032;2024-03-08T05:53:20;7.50;99.90
44731;DHT22;30458;47.448;19.032;2024-03-08T06:03:23;7.40;99.90
44731;DHT22;30458;47.448;19.032;2024-03-08T06:13:26;7.50;99.90
44731;DHT22;30458;47.448;19.032;2024-03-08T06:23:27;7.40;99.90
44731;DHT22;30458;47.448;19.032;2024-03-08T06:33:28;7.50;99.90
44731;DHT22;30458;47.448;19.032;2024-03-08T06:43:29;7.60;99.90
44731;DHT22;30458;47.448;19.032;2024-03-08T06:53:34;7.60;99.90
44731;DHT22;30458;47.448;19.032;2024-03-08T07:03:40;7.70;99.90
44731;DHT22;30458;47.448;19.032;2024-03-08T07:13:45;7.80;99.90
44731;DHT22;30458;47.448;19.032;2024-03-08T07:23:46;7.90;99.90
44731;DHT22;30458;47.448;19.032;2024-03-08T07:33:53;7.80;99.90
44731;DHT22;30458;47.448;19.032;2024-03-08T07:43:54;7.80;99.90
44731;DHT22;30458;47.448;19.032;2024-03-08T07:53:55;7.70;99.90
44731;DHT22;30458;47.448;19.032;2024-03-08T08:04:00;7.70;99.90
44731;DHT22;30458;47.448;19.032;2024-03-08T08:14:01;7.90;99.90
44731;DHT22;30458;47.448;19.032;2024-03-08T08:24:07;8.00;99.90
44731;DHT22;30458;47.448;19.032;2024-03-08T08:34:09;7.90;99.90
44731;DHT22;30458;47.448;19.032;2024-03-08T08:44:12;7.80;99.90
44731;DHT22;30458;47.448;19.032;2024-03-08T08:54:13;7.90;99.90
44731;DHT22;30458;47.448;19.032;2024-03-08T09:04:19;7.90;99.90
44731;DHT22;30458;47.448;19.032;2024-03-08T09:14:23;8.10;99.90
44731;DHT22;30458;47.448;19.032;2024-03-08T09:24:26;8.30;99.90
44731;DHT22;30458;47.448;19.032;2024-03-08T09:34:29;8.50;99.90
44731;DHT22;30458;47.448;19.032;2024-03-08T09:44:30;8.60;99.90
44731;DHT22;30458;47.448;19.032;2024-03-08T09:54:32;8.60;99.90
44731;DHT22;30458;47.448;19.032;2024-03-08T10:04:33;8.80;99.90
44731;DHT22;30458;47.448;19.032;2024-03-08T10:14:34;9.00;99.90
44731;DHT22;30458;47.448;19.032;2024-03-08T10:24:38;9.20;99.90
44731;DHT22;30458;47.448;19.032;2024-03-08T10:34:44;9.30;99.90
44731;DHT22;30458;47.448;19.032;2024-03-08T10:45:02;9.10;99.90
44731;DHT22;30458;47.448;19.032;2024-03-08T10:55:10;9.10;99.90
44731;DHT22;30458;47.448;19.032;2024-03-08T11:15:39;8.60;99.90
44731;DHT22;30458;47.448;19.032;2024-03-08T11:25:40;8.80;99.90
44731;DHT22;30458;47.448;19.032;2024-03-08T11:35:51;9.10;99.90
44731;DHT22;30458;47.448;19.032;2024-03-08T11:46:07;9.40;99.90
44731;DHT22;30458;47.448;19.032;2024-03-08T11:56:10;9.60;99.90
44731;DHT22;30458;47.448;19.032;2024-03-08T12:06:14;9.60;99.90
44731;DHT22;30458;47.448;19.032;2024-03-08T12:16:20;9.80;99.90
44731;DHT22;30458;47.448;19.032;2024-03-08T12:26:25;9.90;99.90
44731;DHT22;30458;47.448;19.032;2024-03-08T12:36:28;9.80;99.90
44731;DHT22;30458;47.448;19.032;2024-03-08T12:46:29;9.50;99.90
44731;DHT22;30458;47.448;19.032;2024-03-08T12:56:31;9.50;99.90
44731;DHT22;30458;47.448;19.032;2024-03-08T13:06:37;9.40;99.90
44731;DHT22;30458;47.448;19.032;2024-03-08T13:16:37;9.10;99.90
44731;DHT22;30458;47.448;19.032;2024-03-08T13:26:38;9.20;99.90
44731;DHT22;30458;47.448;19.032;2024-03-08T13:36:39;9.20;99.90
44731;DHT22;30458;47.448;19.032;2024-03-08T13:46:47;9.10;99.90
44731;DHT22;30458;47.448;19.032;2024-03-08T13:56:48;9.10;99.90
44731;DHT22;30458;47.448;19.032;2024-03-08T14:06:52;9.00;99.90
44731;DHT22;30458;47.448;19.032;2024-03-08T14:16:57;9.20;99.90
44731;DHT22;30458;47.448;19.032;2024-03-08T14:26:58;9.20;99.90
44731;DHT22;30458;47.448;19.032;2024-03-08T14:37:00;9.20;99.90
44731;DHT22;30458;47.448;19.032;2024-03-08T14:47:01;9.30;99.90
44731;DHT22;30458;47.448;19.032;2024-03-08T14:57:04;9.20;99.90
44731;DHT22;30458;47.448;19.032;2024-03-08T15:07:07;9.10;99.90
44731;DHT22;30458;47.448;19.032;2024-03-08T15:17:10;9.10;99.90
44731;DHT22;30458;47.448;19.032;2024-03-08T15:27:17;9.10;99.90
44731;DHT22;30458;47.448;19.032;2024-03-08T15:37:19;9.10;99.90
44731;DHT22;30458;47.448;19.032;2024-03-08T15:47:24;8.90;99.90
44731;DHT22;30458;47.448;19.032;2024-03-08T15:57:28;8.90;99.90
44731;DHT22;30458;47.448;19.032;2024-03-08T16:07:32;8.90;99.90
44731;DHT22;30458;47.448;19.032;2024-03-08T16:17:36;8.90;99.90
44731;DHT22;30458;47.448;19.032;2024-03-08T16:27:36;8.80;99.90
44731;DHT22;30458;47.448;19.032;2024-03-08T16:37:40;8.80;99.90
44731;DHT22;30458;47.448;19.032;2024-03-08T16:47:44;8.90;99.90
44731;DHT22;30458;47.448;19.032;2024-03-08T16:57:46;8.60;99.90
44731;DHT22;30458;47.448;19.032;2024-03-08T17:07:48;8.50;99.90
44731;DHT22;30458;47.448;19.032;2024-03-08T17:17:50;8.50;99.90
44731;DHT22;30458;47.448;19.032;2024-03-08T17:27:56;8.50;99.90
44731;DHT22;30458;47.448;19.032;2024-03-08T17:37:59;8.60;99.90
44731;DHT22;30458;47.448;19.032;2024-03-08T17:48:09;8.50;99.90
44731;DHT22;30458;47.448;19.032;2024-03-08T17:58:14;8.70;99.90
44731;DHT22;30458;47.448;19.032;2024-03-08T18:08:20;8.60;99.90
44731;DHT22;30458;47.448;19.032;2024-03-08T18:18:23;8.70;99.90
44731;DHT22;30458;47.448;19.032;2024-03-08T18:28:24;8.80;99.90
44731;DHT22;30458;47.448;19.032;2024-03-08T18:38:24;8.80;99.90
44731;DHT22;30458;47.448;19.032;2024-03-08T18:48:25;8.80;99.90
44731;DHT22;30458;47.448;19.032;2024-03-08T18:58:27;8.60;99.90
44731;DHT22;30458;47.448;19.032;2024-03-08T19:08:33;8.60;99.90
44731;DHT22;30458;47.448;19.032;2024-03-08T19:18:38;8.50;99.90
44731;DHT22;30458;47.448;19.032;2024-03-08T19:28:43;8.30;99.90
44731;DHT22;30458;47.448;19.032;2024-03-08T19:38:49;8.20;99.90
44731;DHT22;30458;47.448;19.032;2024-03-08T19:48:52;8.10;99.90
44731;DHT22;30458;47.448;19.032;2024-03-08T19:58:59;8.00;99.90
44731;DHT22;30458;47.448;19.032;2024-03-08T20:09:04;8.00;99.90
44731;DHT22;30458;47.448;19.032;2024-03-08T20:19:06;8.10;99.90
44731;DHT22;30458;47.448;19.032;2024-03-08T20:29:10;7.90;99.90
44731;DHT22;30458;47.448;19.032;2024-03-08T20:39:11;8.00;99.90
44731;DHT22;30458;47.448;19.032;2024-03-08T20:49:18;8.00;99.90
44731;DHT22;30458;47.448;19.032;2024-03-08T20:59:20;7.90;99.90
44731;DHT22;30458;47.448;19.032;2024-03-08T21:09:21;8.20;99.90
44731;DHT22;30458;47.448;19.032;2024-03-08T21:19:23;8.10;99.90
44731;DHT22;30458;47.448;19.032;2024-03-08T21:29:24;8.00;99.90
44731;DHT22;30458;47.448;19.032;2024-03-08T21:39:25;7.90;99.90
44731;DHT22;30458;47.448;19.032;2024-03-08T21:49:28;8.20;99.90
44731;DHT22;30458;47.448;19.032;2024-03-08T21:59:29;8.40;99.90
44731;DHT22;30458;47.448;19.032;2024-03-08T22:09:33;8.40;99.90
44731;DHT22;30458;47.448;19.032;2024-03-08T22:19:36;8.20;99.90
44731;DHT22;30458;47.448;19.032;2024-03-08T22:29:37;7.90;99.90
44731;DHT22;30458;47.448;19.032;2024-03-08T22:39:41;8.10;99.90
44731;DHT22;30458;47.448;19.032;2024-03-08T22:49:45;8.20;99.90
44731;DHT22;30458;47.448;19.032;2024-03-08T22:59:46;8.30;99.90
44731;DHT22;30458;47.448;19.032;2024-03-08T23:09:55;8.20;99.90
44731;DHT22;30458;47.448;19.032;2024-03-08T23:19:59;8.10;99.90
44731;DHT22;30458;47.448;19.032;2024-03-08T23:29:59;7.80;99.90
44731;DHT22;30458;47.448;19.032;2024-03-08T23:40:00;7.70;99.90
44731;DHT22;30458;47.448;19.032;2024-03-08T23:50:01;7.70;99.90
